Impacts TAF Board INFO
FOR SITUATIONAL AWARENESS. NOT TO BE USED FOR FLIGHT PLANNING PURPOSES.
IDs:

KFLL - Ft Lauderdale-Hollyw, FL, US

Issued at 1459 UTC 18 Dec 2017
Updated at 1643 UTC 18 Dec 2017
Potential Impact None Slight Moderate High
Time1553Z 18/17Z 18/18Z 18/19Z 18/20Z 18/21Z 18/22Z 18/23Z 19/00Z 19/01Z 19/02Z 19/03Z 19/04Z 19/05Z>>
Type OBS PRVL PRVL PRVL PRVL PRVL PRVL PRVL PRVL PRVL PRVL PRVL PRVL PRVL
VIS 10 >6 >6 >6 >6 >6 >6 >6 >6 >6 >6 >6 >6 >6
CIG 250 -- -- -- -- -- -- -- -- -- -- -- -- --
Cover BKN SCT SCT SCT SCT SCT SCT FEW FEW FEW FEW FEW FEW FEW
FltCat VFR VFR VFR VFR VFR VFR VFR VFR VFR VFR VFR VFR VFR VFR
WX -- -- -- -- -- -- -- -- -- -- -- -- -- --
WDir 140 130 130 130 130 130 130 VRB VRB VRB VRB VRB VRB VRB
WSpd 10 10 10 10 10 10 10 5 5 5 5 5 5 5
WGst -- -- -- -- -- -- -- -- -- -- -- -- -- --

Raw TAF
KFLL 181459Z 1815/1918 13010KT P6SM SCT030 SCT060
  FM182300 VRB05KT P6SM FEW025
  FM191500 10010KT P6SM SCT030 SCT050


Raw METAR
KFLL 181553Z 14010KT 10SM SCT025 BKN250 27/22 A3023 RMK AO2 SLP236 T02670217 $
KFLL 181453Z 14009KT 10SM SCT025 SCT035 BKN250 26/22 A3023 RMK AO2 SLP237 6//// T02560217 $
KFLL 181353Z 14006KT 10SM FEW025 SCT250 25/22 A3023 RMK AO2 SLP236 T02500222

METAR Board
Radar Display
Forecast Discussion

FOR SITUATIONAL AWARENESS. NOT TO BE USED FOR FLIGHT PLANNING PURPOSES.